createdAt,value
2022-12-18T00:01:27.778Z,102876.28
2022-12-18T00:03:57.511Z,102864.50
2022-12-18T00:06:26.599Z,102852.50
2022-12-18T00:08:54.690Z,102836.06
2022-12-18T00:11:25.236Z,102831.81
2022-12-18T00:13:53.460Z,102834.19
2022-12-18T00:16:23.096Z,102839.09
2022-12-18T00:18:56.845Z,102835.41
2022-12-18T00:21:24.614Z,102841.41
2022-12-18T00:23:52.720Z,102836.66
2022-12-18T00:26:22.544Z,102850.03
2022-12-18T00:28:50.669Z,102836.41
2022-12-18T00:31:21.704Z,102845.84
2022-12-18T00:33:52.630Z,102846.19
2022-12-18T00:36:25.902Z,102837.94
2022-12-18T00:38:54.992Z,102840.03
2022-12-18T00:41:36.879Z,102835.44
2022-12-18T00:44:05.420Z,102830.59
2022-12-18T00:46:33.651Z,102820.69
2022-12-18T00:49:01.207Z,102832.34
2022-12-18T00:51:28.974Z,102828.31
2022-12-18T00:53:56.911Z,102821.38
2022-12-18T00:56:25.168Z,102829.63
2022-12-18T00:58:52.775Z,102821.03
2022-12-18T01:01:20.799Z,102837.13
2022-12-18T01:03:48.659Z,102843.69
2022-12-18T01:06:17.728Z,102848.47
2022-12-18T01:08:46.177Z,102859.50
2022-12-18T01:11:17.060Z,102853.50
2022-12-18T01:13:45.372Z,102849.03
2022-12-18T01:16:17.909Z,102843.63
2022-12-18T01:18:45.727Z,102842.84
2022-12-18T01:21:18.348Z,102850.81
2022-12-18T01:23:45.865Z,102851.16
2022-12-18T01:26:18.372Z,102850.97
2022-12-18T01:28:46.018Z,102852.13
2022-12-18T01:31:21.269Z,102844.94
2022-12-18T01:33:48.853Z,102838.75
2022-12-18T01:36:18.644Z,102840.88
2022-12-18T01:38:46.583Z,102850.69
2022-12-18T01:41:14.764Z,102854.47
2022-12-18T01:43:50.478Z,102855.56
2022-12-18T01:46:19.877Z,102856.44
2022-12-18T01:48:51.187Z,102853.72
2022-12-18T01:51:19.206Z,102856.66
2022-12-18T01:53:49.791Z,102872.78
2022-12-18T01:56:20.744Z,102855.63
2022-12-18T01:59:12.459Z,102861.94
2022-12-18T02:01:41.034Z,102866.59
2022-12-18T02:04:26.830Z,102861.81
2022-12-18T02:07:24.124Z,102867.06
2022-12-18T02:10:08.014Z,102866.59
2022-12-18T02:12:49.670Z,102876.47
2022-12-18T02:15:59.635Z,102883.16
2022-12-18T02:18:32.390Z,102878.94
2022-12-18T02:21:33.841Z,102887.47
2022-12-18T02:24:04.320Z,102891.03
2022-12-18T02:26:38.811Z,102886.22
2022-12-18T02:29:14.093Z,102885.22
2022-12-18T02:31:47.022Z,102879.72
2022-12-18T02:34:16.023Z,102872.72
2022-12-18T02:36:46.139Z,102866.06
2022-12-18T02:39:15.757Z,102878.59
2022-12-18T02:41:43.634Z,102872.09
2022-12-18T02:44:14.055Z,102868.19
2022-12-18T02:46:44.676Z,102857.22
2022-12-18T02:49:23.899Z,102862.59
2022-12-18T02:52:19.131Z,102858.66
2022-12-18T02:55:03.598Z,102849.78
2022-12-18T02:57:51.225Z,102846.97
2022-12-18T03:00:24.032Z,102855.81
2022-12-18T03:03:07.421Z,102844.81
2022-12-18T03:05:47.928Z,102840.03
2022-12-18T03:08:20.953Z,102824.53
2022-12-18T03:10:55.756Z,102820.22
2022-12-18T03:13:59.321Z,102835.91
2022-12-18T03:16:33.169Z,102829.16
2022-12-18T03:19:05.434Z,102823.00
2022-12-18T03:21:41.068Z,102797.38
2022-12-18T03:24:11.640Z,102810.25
2022-12-18T03:26:45.773Z,102805.56
2022-12-18T03:29:21.856Z,102798.59
2022-12-18T03:31:55.923Z,102799.38
2022-12-18T03:34:34.527Z,102802.03
2022-12-18T03:37:03.271Z,102807.88
2022-12-18T03:39:31.135Z,102809.50
2022-12-18T03:42:01.624Z,102806.06
2022-12-18T03:44:35.809Z,102789.53
2022-12-18T03:47:06.240Z,102800.88
2022-12-18T03:49:51.828Z,102795.50
2022-12-18T03:52:28.811Z,102807.44
2022-12-18T03:54:58.876Z,102791.63
2022-12-18T03:57:32.169Z,102788.38
2022-12-18T04:00:05.591Z,102773.47
2022-12-18T04:02:34.394Z,102774.66
2022-12-18T04:05:06.772Z,102763.97
2022-12-18T04:07:35.188Z,102767.09
2022-12-18T04:10:04.311Z,102772.28
2022-12-18T04:12:32.402Z,102763.66
2022-12-18T04:14:59.911Z,102756.81
2022-12-18T04:17:27.440Z,102753.25
2022-12-18T04:19:54.948Z,102751.47
2022-12-18T04:22:22.509Z,102761.88
2022-12-18T04:24:49.964Z,102763.66
2022-12-18T04:27:17.492Z,102758.31
2022-12-18T04:29:44.991Z,102765.75
2022-12-18T04:32:12.602Z,102770.09
2022-12-18T04:34:40.087Z,102771.44
2022-12-18T04:37:07.800Z,102778.59
2022-12-18T04:39:36.700Z,102773.53
2022-12-18T04:42:04.541Z,102784.41
2022-12-18T04:44:32.068Z,102787.25
2022-12-18T04:46:59.600Z,102773.25
2022-12-18T04:49:27.441Z,102786.34
2022-12-18T04:51:54.961Z,102796.47
2022-12-18T04:54:22.932Z,102801.28
2022-12-18T04:56:51.395Z,102810.50
2022-12-18T04:59:18.918Z,102806.06
2022-12-18T05:01:46.844Z,102793.53
2022-12-18T05:04:14.459Z,102800.38
2022-12-18T05:06:41.972Z,102812.31
2022-12-18T05:09:09.624Z,102810.50
2022-12-18T05:11:37.154Z,102798.75
2022-12-18T05:14:04.841Z,102810.22
2022-12-18T05:16:32.563Z,102817.41
2022-12-18T05:19:00.111Z,102812.94
2022-12-18T05:21:27.672Z,102812.63
2022-12-18T05:23:55.277Z,102816.19
2022-12-18T05:26:22.846Z,102829.63
2022-12-18T05:28:50.424Z,102825.75
2022-12-18T05:31:18.066Z,102827.53
2022-12-18T05:33:45.664Z,102826.94
2022-12-18T05:36:13.317Z,102822.47
2022-12-18T05:38:41.287Z,102813.84
2022-12-18T05:41:09.509Z,102815.94
2022-12-18T05:43:39.442Z,102802.66
2022-12-18T05:46:09.531Z,102810.88
2022-12-18T05:48:37.323Z,102811.72
2022-12-18T05:51:09.941Z,102803.72
2022-12-18T05:53:38.725Z,102803.97
2022-12-18T05:56:09.315Z,102790.00
2022-12-18T05:58:38.017Z,102794.63
2022-12-18T06:01:27.337Z,102788.06
2022-12-18T06:03:55.327Z,102781.94
2022-12-18T06:06:28.700Z,102778.66
2022-12-18T06:08:57.481Z,102774.66
2022-12-18T06:11:27.868Z,102774.81
2022-12-18T06:13:58.856Z,102770.59
2022-12-18T06:16:27.839Z,102767.34
2022-12-18T06:18:58.538Z,102769.88
2022-12-18T06:21:26.572Z,102763.75
2022-12-18T06:23:54.188Z,102759.59
2022-12-18T06:26:27.624Z,102779.25
2022-12-18T06:28:55.835Z,102790.16
2022-12-18T06:31:23.355Z,102782.25
2022-12-18T06:33:50.913Z,102769.44
2022-12-18T06:36:18.568Z,102752.31
2022-12-18T06:38:46.535Z,102742.34
2022-12-18T06:41:20.883Z,102755.72
2022-12-18T06:43:48.618Z,102753.94
2022-12-18T06:46:16.478Z,102739.34
2022-12-18T06:48:44.278Z,102745.13
2022-12-18T06:51:17.632Z,102733.50
2022-12-18T06:53:45.211Z,102721.44
2022-12-18T06:56:12.846Z,102727.69
2022-12-18T06:58:41.256Z,102720.22
2022-12-18T07:01:12.256Z,102731.25
2022-12-18T07:03:42.506Z,102722.91
2022-12-18T07:06:22.809Z,102731.38
2022-12-18T07:08:51.251Z,102719.31
2022-12-18T07:11:19.772Z,102714.56
2022-12-18T07:13:47.428Z,102705.31
2022-12-18T07:16:25.147Z,102706.94
2022-12-18T07:18:54.110Z,102697.56
2022-12-18T07:21:22.583Z,102703.84
2022-12-18T07:23:50.084Z,102704.59
2022-12-18T07:26:20.263Z,102700.28
2022-12-18T07:28:48.604Z,102702.81
2022-12-18T07:31:19.391Z,102693.44
2022-12-18T07:33:48.076Z,102691.06
2022-12-18T07:36:16.456Z,102679.72
2022-12-18T07:38:44.063Z,102665.72
2022-12-18T07:41:14.118Z,102660.50
2022-12-18T07:43:43.222Z,102669.88
2022-12-18T07:46:13.466Z,102658.84
2022-12-18T07:48:42.106Z,102668.66
2022-12-18T07:51:10.942Z,102646.63
2022-12-18T07:53:39.298Z,102646.91
2022-12-18T07:56:29.508Z,102646.16
2022-12-18T07:58:58.708Z,102636.50
2022-12-18T08:01:26.730Z,102642.16
2022-12-18T08:03:54.443Z,102637.34
2022-12-18T08:06:23.238Z,102637.91
2022-12-18T08:08:56.712Z,102648.72
2022-12-18T08:11:24.568Z,102650.94
2022-12-18T08:13:52.159Z,102654.03
2022-12-18T08:16:20.308Z,102664.91
2022-12-18T08:18:48.409Z,102665.50
2022-12-18T08:21:21.834Z,102675.44
2022-12-18T08:23:51.108Z,102673.19
2022-12-18T08:26:19.823Z,102668.38
2022-12-18T08:28:48.795Z,102671.34
2022-12-18T08:31:18.686Z,102667.66
2022-12-18T08:33:46.300Z,102672.75
2022-12-18T08:36:14.520Z,102677.81
2022-12-18T08:38:41.997Z,102667.97
2022-12-18T08:41:13.647Z,102655.56
2022-12-18T08:43:59.123Z,102654.78
2022-12-18T08:46:28.096Z,102640.16
2022-12-18T08:48:56.596Z,102639.78
2022-12-18T08:51:24.179Z,102645.41
2022-12-18T08:53:51.813Z,102641.47
2022-12-18T08:56:19.925Z,102641.81
2022-12-18T08:58:47.558Z,102632.97
2022-12-18T09:01:15.820Z,102631.47
2022-12-18T09:03:44.073Z,102622.75
2022-12-18T09:06:16.642Z,102635.56
2022-12-18T09:08:47.792Z,102642.94
2022-12-18T09:11:22.778Z,102656.94
2022-12-18T09:13:50.582Z,102654.19
2022-12-18T09:16:18.860Z,102645.16
2022-12-18T09:18:46.500Z,102653.19
2022-12-18T09:21:20.240Z,102651.94
2022-12-18T09:23:55.593Z,102653.22
2022-12-18T09:26:24.610Z,102627.88
2022-12-18T09:28:52.621Z,102647.91
2022-12-18T09:31:23.183Z,102636.25
2022-12-18T09:33:51.037Z,102638.03
2022-12-18T09:36:19.944Z,102625.09
2022-12-18T09:38:49.363Z,102614.44
2022-12-18T09:41:25.976Z,102625.22
2022-12-18T09:43:58.844Z,102619.22
2022-12-18T09:46:34.176Z,102624.09
2022-12-18T09:49:08.081Z,102623.56
2022-12-18T09:51:42.200Z,102613.94
2022-12-18T09:54:17.946Z,102612.16
2022-12-18T09:56:45.917Z,102614.69
2022-12-18T09:59:27.585Z,102610.13
2022-12-18T10:01:56.055Z,102599.19
2022-12-18T10:04:23.926Z,102607.56
2022-12-18T10:07:14.229Z,102591.69
2022-12-18T10:09:41.647Z,102604.66
2022-12-18T10:12:11.936Z,102607.56
2022-12-18T10:15:08.964Z,102613.16
2022-12-18T10:17:48.293Z,102598.75
2022-12-18T10:20:26.458Z,102601.69
2022-12-18T10:23:25.375Z,102588.97
2022-12-18T10:26:06.777Z,102597.59
2022-12-18T10:28:37.787Z,102594.13
2022-12-18T10:31:08.423Z,102588.88
2022-12-18T10:33:36.570Z,102578.47
2022-12-18T10:36:04.353Z,102571.09
2022-12-18T10:38:33.739Z,102575.63
2022-12-18T10:41:02.935Z,102570.31
2022-12-18T10:43:31.651Z,102568.38
2022-12-18T10:46:11.246Z,102561.47
2022-12-18T10:48:53.801Z,102550.91
2022-12-18T10:51:34.335Z,102557.03
2022-12-18T10:54:22.103Z,102566.72
2022-12-18T10:56:50.091Z,102551.31
2022-12-18T10:59:20.158Z,102545.81
2022-12-18T11:01:55.898Z,102534.00
2022-12-18T11:04:25.246Z,102534.41
2022-12-18T11:07:04.126Z,102535.63
2022-12-18T11:09:34.166Z,102536.09
2022-12-18T11:12:07.005Z,102519.06
2022-12-18T11:14:46.886Z,102520.63
2022-12-18T11:17:25.888Z,102518.41
2022-12-18T11:19:59.503Z,102510.47
2022-12-18T11:22:30.413Z,102510.69
2022-12-18T11:28:04.811Z,102509.63
2022-12-18T11:30:33.577Z,102505.84
2022-12-18T11:33:24.008Z,102512.09
2022-12-18T11:35:59.264Z,102507.19
2022-12-18T11:38:37.125Z,102509.00
2022-12-18T11:41:16.550Z,102499.78
2022-12-18T11:44:01.575Z,102498.78
2022-12-18T11:46:45.398Z,102498.44
2022-12-18T11:49:36.693Z,102490.81
2022-12-18T11:52:12.357Z,102493.25
2022-12-18T11:54:39.880Z,102476.94
2022-12-18T11:57:17.067Z,102459.44
2022-12-18T12:00:03.503Z,102455.41
2022-12-18T12:02:55.720Z,102440.69
2022-12-18T12:05:41.802Z,102445.56
2022-12-18T12:08:21.202Z,102433.16
2022-12-18T12:11:14.766Z,102436.22
2022-12-18T12:14:11.321Z,102436.22
2022-12-18T12:17:01.038Z,102423.81
2022-12-18T12:19:34.526Z,102436.00
2022-12-18T12:22:13.607Z,102431.13
2022-12-18T12:24:53.124Z,102415.81
2022-12-18T12:27:25.927Z,102420.47
2022-12-18T12:30:13.350Z,102414.16
2022-12-18T12:33:04.082Z,102417.56
2022-12-18T12:35:47.198Z,102409.47
2022-12-18T12:38:27.341Z,102400.91
2022-12-18T12:41:27.771Z,102398.94
2022-12-18T12:43:58.794Z,102391.72
2022-12-18T12:46:28.447Z,102383.41
2022-12-18T12:49:04.832Z,102385.81
2022-12-18T12:51:41.711Z,102386.25
2022-12-18T12:54:19.174Z,102394.91
2022-12-18T12:57:12.856Z,102380.94
2022-12-18T12:59:49.962Z,102379.78
2022-12-18T13:02:17.411Z,102372.34
2022-12-18T13:04:58.891Z,102382.19
2022-12-18T13:07:34.751Z,102370.19
2022-12-18T13:10:20.767Z,102373.59
2022-12-18T13:12:58.380Z,102374.16
2022-12-18T13:15:49.439Z,102375.16
2022-12-18T13:18:21.658Z,102362.41
2022-12-18T13:21:05.928Z,102355.72
2022-12-18T13:23:37.596Z,102361.03
2022-12-18T13:26:09.081Z,102351.03
2022-12-18T13:28:48.883Z,102355.94
2022-12-18T13:31:36.979Z,102345.50
2022-12-18T13:34:29.775Z,102347.47
2022-12-18T13:37:36.556Z,102337.25
2022-12-18T13:40:04.539Z,102325.38
2022-12-18T13:42:49.507Z,102331.97
2022-12-18T13:45:48.237Z,102318.00
2022-12-18T13:48:24.578Z,102313.34
2022-12-18T13:51:00.450Z,102309.16
2022-12-18T13:53:32.357Z,102311.13
2022-12-18T13:56:00.489Z,102302.88
2022-12-18T13:58:28.257Z,102306.22
2022-12-18T14:00:56.251Z,102297.34
2022-12-18T14:03:29.478Z,102295.00
2022-12-18T14:06:08.776Z,102290.91
2022-12-18T14:08:43.043Z,102289.53
2022-12-18T14:11:25.382Z,102297.78
2022-12-18T14:13:54.554Z,102287.78
2022-12-18T14:16:22.396Z,102290.44
2022-12-18T14:18:55.354Z,102284.84
2022-12-18T14:21:28.108Z,102285.72
2022-12-18T14:24:26.083Z,102284.22
2022-12-18T14:26:53.831Z,102278.63
2022-12-18T14:29:27.645Z,102267.72
2022-12-18T14:32:16.599Z,102257.03
2022-12-18T14:34:46.954Z,102254.00
2022-12-18T14:37:17.258Z,102252.25
2022-12-18T14:40:10.502Z,102250.16
2022-12-18T14:42:39.359Z,102253.41
2022-12-18T14:45:45.408Z,102255.97
2022-12-18T14:48:14.260Z,102254.00
2022-12-18T14:50:44.919Z,102244.47
2022-12-18T14:53:25.748Z,102253.78
2022-12-18T14:55:53.475Z,102238.69
2022-12-18T14:58:21.366Z,102240.44
2022-12-18T15:00:49.093Z,102239.66
2022-12-18T15:03:22.381Z,102226.69
2022-12-18T15:05:50.966Z,102226.88
2022-12-18T15:08:38.826Z,102238.00
2022-12-18T15:11:30.702Z,102226.00
2022-12-18T15:14:01.664Z,102228.84
2022-12-18T15:16:29.541Z,102230.44
2022-12-18T15:18:57.151Z,102234.63
2022-12-18T15:21:25.655Z,102221.78
2022-12-18T15:23:54.184Z,102214.91
2022-12-18T15:26:23.861Z,102209.59
2022-12-18T15:28:59.498Z,102201.25
2022-12-18T15:31:32.692Z,102216.28
2022-12-18T15:34:00.729Z,102223.34
2022-12-18T15:36:32.096Z,102219.81
2022-12-18T15:39:05.422Z,102210.50
2022-12-18T15:41:36.693Z,102210.38
2022-12-18T15:44:16.944Z,102198.78
2022-12-18T15:46:44.602Z,102204.31
2022-12-18T15:49:12.292Z,102193.50
2022-12-18T15:51:41.426Z,102192.50
2022-12-18T15:54:15.378Z,102206.06
2022-12-18T15:57:00.683Z,102206.94
2022-12-18T15:59:28.478Z,102175.22
2022-12-18T16:01:57.166Z,102182.72
2022-12-18T16:04:26.384Z,102178.94
2022-12-18T16:09:41.966Z,102166.88
2022-12-18T16:12:17.603Z,102164.53
2022-12-18T16:14:45.612Z,102158.72
2022-12-18T16:17:14.670Z,102156.97
2022-12-18T16:19:42.192Z,102145.75
2022-12-18T16:22:25.776Z,102138.28
2022-12-18T16:24:54.823Z,102137.59
2022-12-18T16:27:23.743Z,102141.66
2022-12-18T16:29:52.028Z,102137.34
2022-12-18T16:32:21.965Z,102143.59
2022-12-18T16:34:50.965Z,102128.97
2022-12-18T16:37:18.540Z,102135.16
2022-12-18T16:39:46.227Z,102141.91
2022-12-18T16:42:21.645Z,102138.88
2022-12-18T16:44:50.968Z,102104.59
2022-12-18T16:47:19.038Z,102132.00
2022-12-18T16:49:47.024Z,102122.47
2022-12-18T16:52:15.327Z,102128.50
2022-12-18T16:54:42.832Z,102113.06
2022-12-18T16:57:15.196Z,102117.56
2022-12-18T16:59:43.061Z,102120.81
2022-12-18T17:02:23.381Z,102103.81
2022-12-18T17:04:53.951Z,102111.56
2022-12-18T17:07:21.507Z,102111.22
2022-12-18T17:09:50.397Z,102107.97
2022-12-18T17:12:18.897Z,102125.50
2022-12-18T17:14:46.385Z,102118.63
2022-12-18T17:17:23.331Z,102115.13
2022-12-18T17:19:51.803Z,102111.97
2022-12-18T17:22:19.431Z,102110.00
2022-12-18T17:24:48.256Z,102111.97
2022-12-18T17:27:16.536Z,102117.09
2022-12-18T17:29:47.839Z,102105.06
2022-12-18T17:32:17.335Z,102107.63
2022-12-18T17:34:45.202Z,102097.72
2022-12-18T17:37:12.751Z,102116.38
2022-12-18T17:39:40.517Z,102110.78
2022-12-18T17:42:14.886Z,102112.53
2022-12-18T17:44:44.552Z,102113.34
2022-12-18T17:47:13.650Z,102115.38
2022-12-18T17:49:41.415Z,102106.63
2022-12-18T17:52:09.041Z,102104.28
2022-12-18T17:54:39.434Z,102109.59
2022-12-18T17:57:07.007Z,102106.22
2022-12-18T17:59:34.582Z,102110.13
2022-12-18T18:02:02.294Z,102105.53
2022-12-18T18:04:30.500Z,102102.88
2022-12-18T18:06:57.966Z,102105.28
2022-12-18T18:09:25.578Z,102085.22
2022-12-18T18:12:11.249Z,102101.31
2022-12-18T18:14:38.933Z,102107.69
2022-12-18T18:17:06.653Z,102096.56
2022-12-18T18:19:34.842Z,102089.91
2022-12-18T18:22:03.642Z,102100.31
2022-12-18T18:24:31.301Z,102102.38
2022-12-18T18:26:59.986Z,102102.66
2022-12-18T18:29:30.319Z,102095.00
2022-12-18T18:31:58.151Z,102091.94
2022-12-18T18:34:30.671Z,102086.72
2022-12-18T18:36:58.176Z,102087.78
2022-12-18T18:39:26.362Z,102093.78
2022-12-18T18:41:53.978Z,102084.63
2022-12-18T18:44:24.883Z,102094.84
2022-12-18T18:46:59.282Z,102083.56
2022-12-18T18:49:28.513Z,102078.47
2022-12-18T18:51:57.258Z,102083.56
2022-12-18T18:54:25.966Z,102075.09
2022-12-18T18:57:19.296Z,102077.06
2022-12-18T18:59:41.429Z,102067.03
2022-12-18T19:02:13.634Z,102068.25
2022-12-18T19:04:46.214Z,102069.50
2022-12-18T19:07:18.977Z,102071.75
2022-12-18T19:10:02.057Z,102065.28
2022-12-18T19:12:50.105Z,102079.19
2022-12-18T19:15:17.718Z,102084.31
2022-12-18T19:17:47.444Z,102074.88
2022-12-18T19:20:15.821Z,102070.81
2022-12-18T19:22:43.343Z,102073.47
2022-12-18T19:25:13.556Z,102079.41
2022-12-18T19:27:42.643Z,102085.09
2022-12-18T19:30:11.046Z,102091.38
2022-12-18T19:32:39.768Z,102088.63
2022-12-18T19:35:07.576Z,102091.78
2022-12-18T19:37:36.049Z,102084.91
2022-12-18T19:40:06.673Z,102085.00
2022-12-18T19:42:40.065Z,102066.28
2022-12-18T19:45:08.014Z,102086.59
2022-12-18T19:47:35.567Z,102079.72
2022-12-18T19:50:03.270Z,102091.03
2022-12-18T19:52:30.901Z,102084.81
2022-12-18T19:54:58.491Z,102091.03
2022-12-18T19:57:25.944Z,102089.22
2022-12-18T19:59:53.524Z,102082.25
2022-12-18T20:02:21.104Z,102082.88
2022-12-18T20:04:49.718Z,102077.75
2022-12-18T20:07:18.204Z,102085.00
2022-12-18T20:09:46.058Z,102082.38
2022-12-18T20:12:14.458Z,102089.06
2022-12-18T20:14:42.232Z,102084.31
2022-12-18T20:17:10.432Z,102082.38
2022-12-18T20:19:38.157Z,102089.22
2022-12-18T20:22:05.755Z,102076.34
2022-12-18T20:24:33.720Z,102087.06
2022-12-18T20:27:01.308Z,102080.19
2022-12-18T20:29:29.380Z,102070.72
2022-12-18T20:31:57.040Z,102070.81
2022-12-18T20:34:25.493Z,102071.81
2022-12-18T20:36:53.672Z,102066.00
2022-12-18T20:39:22.146Z,102067.56
2022-12-18T20:41:50.992Z,102058.94
2022-12-18T20:44:23.619Z,102053.63
2022-12-18T20:46:57.308Z,102053.81
2022-12-18T20:49:26.449Z,102056.28
2022-12-18T20:51:56.092Z,102059.56
2022-12-18T20:54:26.051Z,102046.47
2022-12-18T20:56:53.587Z,102048.00
2022-12-18T20:59:22.975Z,102052.59
2022-12-18T21:01:53.739Z,102029.50
2022-12-18T21:04:22.561Z,102026.84
2022-12-18T21:06:55.858Z,102020.41
2022-12-18T21:09:28.108Z,102019.81
2022-12-18T21:12:18.874Z,102013.72
2022-12-18T21:14:46.393Z,102007.63
2022-12-18T21:17:16.188Z,102010.28
2022-12-18T21:19:43.707Z,102004.13
2022-12-18T21:22:11.948Z,101998.44
2022-12-18T21:24:39.573Z,102002.88
2022-12-18T21:27:07.172Z,101997.78
2022-12-18T21:29:34.910Z,101998.63
2022-12-18T21:32:06.183Z,101991.34
2022-12-18T21:34:34.212Z,101999.53
2022-12-18T21:37:02.959Z,101999.34
2022-12-18T21:39:31.580Z,101997.41
2022-12-18T21:42:17.419Z,101991.06
2022-12-18T21:44:47.913Z,101989.50
2022-12-18T21:47:22.126Z,101992.81
2022-12-18T21:49:57.559Z,101984.09
2022-12-18T21:52:31.675Z,101979.09
2022-12-18T21:55:07.921Z,101980.66
2022-12-18T21:57:36.556Z,101972.22
2022-12-18T22:00:05.616Z,101961.53
2022-12-18T22:02:33.946Z,101957.03
2022-12-18T22:05:01.660Z,101957.75
2022-12-18T22:07:29.735Z,101956.88
2022-12-18T22:09:57.314Z,101941.53
2022-12-18T22:12:43.643Z,101934.81
2022-12-18T22:15:15.512Z,101940.91
2022-12-18T22:17:49.484Z,101927.25
2022-12-18T22:20:17.186Z,101924.78
2022-12-18T22:22:44.778Z,101907.69
2022-12-18T22:25:12.767Z,101916.22
2022-12-18T22:27:40.253Z,101901.88
2022-12-18T22:30:08.289Z,101890.84
2022-12-18T22:32:38.596Z,101889.19
2022-12-18T22:35:14.305Z,101888.38
2022-12-18T22:37:45.934Z,101872.75
2022-12-18T22:40:39.945Z,101885.28
2022-12-18T22:43:07.528Z,101878.41
2022-12-18T22:45:38.389Z,101877.53
2022-12-18T22:48:06.762Z,101869.03
2022-12-18T22:50:34.481Z,101864.13
2022-12-18T22:53:02.031Z,101858.91
2022-12-18T22:55:29.618Z,101859.88
2022-12-18T22:57:57.156Z,101847.03
2022-12-18T23:00:24.891Z,101850.69
2022-12-18T23:02:59.929Z,101845.41
2022-12-18T23:05:29.424Z,101833.78
2022-12-18T23:07:56.982Z,101839.03
2022-12-18T23:10:24.520Z,101832.16
2022-12-18T23:12:52.081Z,101832.34
2022-12-18T23:15:19.863Z,101842.56
2022-12-18T23:17:55.500Z,101833.06
2022-12-18T23:20:23.040Z,101820.19
2022-12-18T23:22:50.500Z,101824.75
2022-12-18T23:25:18.174Z,101825.00
2022-12-18T23:27:45.829Z,101829.16
2022-12-18T23:30:13.805Z,101821.56
2022-12-18T23:32:41.308Z,101813.97
2022-12-18T23:35:09.277Z,101803.75
2022-12-18T23:38:01.034Z,101792.09
2022-12-18T23:40:26.140Z,101775.75
2022-12-18T23:42:53.628Z,101786.78
2022-12-18T23:45:21.173Z,101798.09
2022-12-18T23:47:50.876Z,101794.72
2022-12-18T23:50:18.994Z,101785.34
2022-12-18T23:52:49.686Z,101775.84
2022-12-18T23:55:17.305Z,101770.00
2022-12-18T23:57:44.805Z,101772.81
